Bunceton, MO (65237)

8:44 AM CST on January 31, 2015 (GMT -0600)
APRSWXNET Pilot Grove MO US | Change Station
CLOSE
Current Station
Personal Weather Station
Location: Pilot Grove, MO
Elevation: 885 ft
Nearby Weather Stations

Elev 885 ft 38.80 °N, 92.95 °W | Updated 25 minutes ago

Overcast
Overcast
34 °F
Feels Like 34 °F
N
3
Wind Variable Wind from South
Gusts 6.0 mph

Today
High -- | Low -- °F
--% Chance of Precip.
Yesterday
High -- | Low -- °F
Precip. -- in
7:18 AM 5:31 PM
Waxing Gibbous, 90% visible
Pressure 30.29 in
Visibility 10.0 miles
Clouds Scattered Clouds 4000 ft
Mostly Cloudy 4800 ft
Overcast 5000 ft
Windchill 34 °F
Dew Point 28 °F
Humidity 80%
Rainfall 0.00 in
Snow Depth Not available.
UV 0 out of 12
Pollen .30 out of 12
Air Quality Not available.
Flu Activity Not available.
METAR KVER 311435Z AUTO 15005KT 10SM DZ SCT040 BKN048 OVC050 01/M03 A3029 RMK AO2 T00111031

More Conditions Fewer Conditions

Pressure 30.29 in
Visibility 10.0 miles
Clouds Scattered Clouds 4000 ft
Mostly Cloudy 4800 ft
Overcast 5000 ft
Windchill 34 °F
Dew Point 28 °F
Humidity 80%
Rainfall 0.00 in
Snow Depth Not available.
UV 0 out of 12
Pollen .30 out of 12
Air Quality Not available.
Flu Activity Not available.
METAR KVER 311435Z AUTO 15005KT 10SM DZ SCT040 BKN048 OVC050 01/M03 A3029 RMK AO2 T00111031

More Conditions Fewer Conditions

10-Day Weather Forecast

Almanac

Astronomy

Jan. 31, 2015 Rise Set
Actual Time
Civil Twilight
Nautical Twilight
Astronomical Twilight
Moon
Length of Visible Light
Length of Day
Tomorrow will be .
, % of the Moon is Illuminated

Today's Extremes

State Highs State Lows

Community

WunderPhotos

Upload Photos

1,792,064 photos uploaded!

WunderBlogs® & News

Nearby

Air Quality

  Air Quality AQ Index Pollutant
Not available.

Snow Depth

Station Depth Elevation

Earthquake Activity

City Distance Mag. Time & Date
Minimum magnitude displayed is 2.5.

Coastal Water Temperatures

Place Temperature

Nearby Weather Stations